Time;durP1;ratioP1;P1;durP2;ratioP2;P2;SDS_P1;SDS_P2;PMS_P1;PMS_P2;Temp;Humidity;BMP_temperature;BMP_pressure;BME280_temperature;BME280_humidity;BME280_pressure;Samples;Min_cycle;Max_cycle;Signal;HPM_P1;HPM_P2
2022/09/29 00:01:03;;;;;;;2.13;1.40;;;;;;;9.19;100.00;96280.25;18497916;32;20044;-62
2022/09/29 00:11:07;;;;;;;2.93;1.20;;;;;;;9.19;100.00;96266.78;18504517;32;20101;-62
2022/09/29 00:21:12;;;;;;;2.17;0.90;;;;;;;9.23;100.00;96261.59;18365489;32;20458;-62
2022/09/29 00:31:15;;;;;;;2.37;0.83;;;;;;;9.20;100.00;96248.72;18352499;32;20083;-62
2022/09/29 00:41:23;;;;;;;1.50;0.70;;;;;;;9.14;100.00;96243.41;18364542;32;20085;-62
2022/09/29 00:51:28;;;;;;;4.00;0.70;;;;;;;8.99;100.00;96251.75;18468236;32;20122;-62
2022/09/29 01:01:31;;;;;;;0.60;0.50;;;;;;;8.99;100.00;96254.44;18500941;32;20060;-62
2022/09/29 01:11:35;;;;;;;1.23;0.77;;;;;;;8.97;100.00;96233.16;18362585;32;20061;-62
2022/09/29 01:21:40;;;;;;;2.63;0.73;;;;;;;8.94;100.00;96233.75;18361333;32;20128;-62
2022/09/29 01:31:59;;;;;;;1.70;0.90;;;;;;;8.96;100.00;96203.78;18361664;32;20118;-62
2022/09/29 01:42:08;;;;;;;1.27;0.50;;;;;;;8.86;100.00;96212.06;18474239;32;20487;-62
2022/09/29 01:52:20;;;;;;;1.20;0.67;;;;;;;8.81;100.00;96194.88;18498101;32;20101;-62
2022/09/29 02:03:14;;;;;;;1.43;0.60;;;;;;;8.78;100.00;96182.00;18497290;32;20399;-62
2022/09/29 02:13:18;;;;;;;1.37;0.60;;;;;;;8.74;100.00;96189.06;18099889;32;20309;-62
2022/09/29 02:23:21;;;;;;;2.90;0.70;;;;;;;8.76;100.00;96184.19;18045249;32;20509;-62
2022/09/29 02:33:24;;;;;;;0.70;0.40;;;;;;;8.72;100.00;96188.56;18032134;32;20126;-62
2022/09/29 02:43:50;;;;;;;0.77;0.60;;;;;;;8.76;100.00;96184.19;18108477;32;20092;-62
2022/09/29 02:54:11;;;;;;;0.70;0.40;;;;;;;8.73;100.00;96179.38;18382861;32;20110;-62
2022/09/29 03:04:13;;;;;;;1.03;0.63;;;;;;;8.69;100.00;96164.06;18494776;32;20053;-62
2022/09/29 03:14:16;;;;;;;2.33;1.10;;;;;;;8.72;100.00;96150.84;18494850;32;20369;-62
2022/09/29 03:24:18;;;;;;;1.37;1.17;;;;;;;8.66;100.00;96152.03;18494557;32;20049;-62
2022/09/29 03:34:21;;;;;;;2.70;0.80;;;;;;;8.72;100.00;96153.53;18494230;32;20065;-62
2022/09/29 03:44:24;;;;;;;1.20;1.00;;;;;;;8.72;100.00;96161.59;18503352;32;20496;-62
2022/09/29 03:54:27;;;;;;;2.13;1.10;;;;;;;8.70;100.00;96169.19;18491330;32;20049;-62
2022/09/29 04:04:29;;;;;;;0.93;0.80;;;;;;;8.72;100.00;96171.59;18504499;32;20079;-62
2022/09/29 04:14:31;;;;;;;1.97;1.40;;;;;;;8.62;100.00;96180.66;18504325;32;20124;-62
2022/09/29 04:24:34;;;;;;;1.70;1.50;;;;;;;8.65;100.00;96180.84;18489558;32;20102;-62
2022/09/29 04:34:36;;;;;;;3.27;2.07;;;;;;;8.62;100.00;96183.34;18502837;32;20061;-62
2022/09/29 04:44:39;;;;;;;2.70;1.90;;;;;;;8.69;100.00;96197.22;18502221;32;20116;-62
2022/09/29 04:54:41;;;;;;;3.47;2.73;;;;;;;8.64;100.00;96197.31;18487830;32;20045;-62
2022/09/29 05:04:46;;;;;;;3.70;2.57;;;;;;;8.67;100.00;96207.50;18500852;32;20069;-62
2022/09/29 05:14:48;;;;;;;;;;;;;;;8.60;100.00;96209.75;18500973;32;20121;-62
2022/09/29 05:24:51;;;;;;;4.00;3.10;;;;;;;8.63;100.00;96223.47;18493343;32;19974;-62
2022/09/29 05:34:53;;;;;;;3.87;3.10;;;;;;;8.71;100.00;96219.28;18485406;32;20052;-62
2022/09/29 05:44:56;;;;;;;6.23;4.20;;;;;;;8.63;100.00;96233.41;18499078;32;20057;-61
2022/09/29 05:54:59;;;;;;;5.93;4.70;;;;;;;8.71;100.00;96235.44;18484127;32;20107;-61
2022/09/29 06:05:02;;;;;;;5.73;4.40;;;;;;;8.77;100.00;96239.69;18482708;32;20154;-62
2022/09/29 06:15:05;;;;;;;5.10;4.30;;;;;;;8.81;100.00;96235.31;18497093;32;20054;-62
2022/09/29 06:25:08;;;;;;;5.23;4.37;;;;;;;8.83;100.00;96243.09;18496191;32;20061;-61
2022/09/29 06:45:33;;;;;;;6.10;3.53;;;;;;;9.01;100.00;96241.44;18484040;32;20048;-62
2022/09/29 06:55:38;;;;;;;3.90;3.53;;;;;;;9.19;100.00;96239.81;18481701;32;20052;-62
2022/09/29 07:05:43;;;;;;;5.03;4.05;;;;;;;9.32;100.00;96249.03;18480580;32;20058;-62
2022/09/29 07:16:10;;;;;;;3.73;2.97;;;;;;;9.47;100.00;96250.66;18494163;32;20108;-62
2022/09/29 07:26:16;;;;;;;3.03;2.40;;;;;;;9.60;100.00;96263.34;18369208;32;20133;-62
2022/09/29 07:36:21;;;;;;;3.37;2.37;;;;;;;9.65;100.00;96263.25;18369069;32;20069;-62
2022/09/29 07:46:31;;;;;;;4.62;2.08;;;;;;;9.79;100.00;96262.47;18355376;32;20084;-62
2022/09/29 07:56:37;;;;;;;2.80;1.93;;;;;;;9.95;100.00;96276.50;18367423;32;20096;-62
2022/09/29 08:06:45;;;;;;;2.13;1.93;;;;;;;10.07;100.00;96289.47;18405801;32;20079;-62
2022/09/29 08:16:50;;;;;;;2.67;2.03;;;;;;;10.05;100.00;96297.09;18353399;32;20081;-62
2022/09/29 08:26:56;;;;;;;2.40;2.10;;;;;;;9.95;100.00;96314.28;18365659;32;20085;-62
2022/09/29 08:37:10;;;;;;;2.40;2.20;;;;;;;10.09;100.00;96333.19;18365062;32;20074;-62
2022/09/29 08:47:24;;;;;;;3.25;2.78;;;;;;;10.30;100.00;96336.28;18424265;32;20072;-62
2022/09/29 08:57:54;;;;;;;4.28;2.85;;;;;;;10.43;100.00;96335.50;18436254;32;20069;-62
2022/09/29 09:08:05;;;;;;;2.25;1.83;;;;;;;10.65;100.00;96347.50;18482717;32;20037;-62
2022/09/29 09:18:21;;;;;;;2.28;1.98;;;;;;;10.74;100.00;96351.06;18500466;32;20120;-62
2022/09/29 09:28:53;;;;;;;1.60;1.40;;;;;;;10.93;100.00;96352.84;18499707;32;20057;-62
2022/09/29 09:39:16;;;;;;;1.77;1.40;;;;;;;11.12;100.00;96358.88;18484232;32;20048;-62
2022/09/29 09:49:25;;;;;;;1.20;0.93;;;;;;;11.26;100.00;96361.53;18484665;32;20094;-62
2022/09/29 09:59:43;;;;;;;1.17;0.98;;;;;;;11.58;100.00;96356.19;18491224;32;20062;-62
2022/09/29 10:09:48;;;;;;;2.25;0.70;;;;;;;11.78;100.00;96363.81;18497064;32;20059;-62
2022/09/29 10:20:02;;;;;;;0.97;0.67;;;;;;;11.93;100.00;96362.62;18483171;32;20360;-62
2022/09/29 10:30:19;;;;;;;1.40;0.90;;;;;;;12.22;100.00;96363.25;18496592;32;20124;-62
2022/09/29 10:40:23;;;;;;;1.27;0.50;;;;;;;12.49;100.00;96373.87;18482063;32;20079;-62
2022/09/29 10:50:30;;;;;;;0.70;0.50;;;;;;;12.51;100.00;96360.81;18495643;32;20057;-62
2022/09/29 11:00:39;;;;;;;0.90;0.73;;;;;;;12.77;100.00;96368.22;18480734;32;20484;-62
2022/09/29 11:10:45;;;;;;;5.90;0.87;;;;;;;12.73;90.90;96378.13;18495082;32;20361;-62
2022/09/29 11:21:08;;;;;;;0.98;0.55;;;;;;;12.71;97.37;96375.69;18494780;32;20145;-62
2022/09/29 11:31:30;;;;;;;0.60;0.47;;;;;;;12.95;99.60;96373.66;18494875;32;20100;-62
2022/09/29 11:42:07;;;;;;;0.52;0.37;;;;;;;13.15;100.00;96389.31;18493969;32;20052;-62
2022/09/29 11:52:47;;;;;;;0.63;0.40;;;;;;;13.28;96.64;96384.06;18476402;32;20061;-62
2022/09/29 12:03:15;;;;;;;1.17;0.22;;;;;;;13.38;96.62;96381.06;18498953;32;20058;-62
2022/09/29 12:13:41;;;;;;;0.60;0.30;;;;;;;13.41;98.08;96371.50;18504633;32;20133;-62
2022/09/29 12:23:46;;;;;;;1.00;0.30;;;;;;;13.50;95.82;96362.22;18490750;32;20509;-62
2022/09/29 12:33:58;;;;;;;0.60;0.35;;;;;;;13.48;90.81;96366.37;18503063;32;20376;-62
2022/09/29 12:44:17;;;;;;;0.77;0.30;;;;;;;13.53;97.01;96368.94;18482746;32;20123;-62
2022/09/29 12:54:52;;;;;;;0.40;0.30;;;;;;;13.59;88.15;96364.13;18487668;32;20053;-62
2022/09/29 13:05:06;;;;;;;0.28;0.17;;;;;;;13.45;92.47;96369.72;18501310;32;20045;-62
2022/09/29 13:15:33;;;;;;;0.37;0.20;;;;;;;13.26;97.82;96365.37;18499971;32;20054;-62
2022/09/29 13:26:15;;;;;;;1.77;0.28;;;;;;;13.29;100.00;96350.37;18500315;32;20041;-62
2022/09/29 13:36:35;;;;;;;0.70;0.40;;;;;;;13.23;100.00;96364.09;18493153;32;20457;-62
2022/09/29 13:46:39;;;;;;;1.05;0.57;;;;;;;13.04;100.00;96369.84;18479954;32;20090;-62
2022/09/29 13:56:42;;;;;;;0.32;0.25;;;;;;;13.01;100.00;96375.91;18471752;32;20072;-62
2022/09/29 14:06:47;;;;;;;2.17;0.75;;;;;;;12.96;100.00;96380.69;18483626;32;20104;-62
2022/09/29 14:17:00;;;;;;;1.20;0.40;;;;;;;12.88;100.00;96391.22;18482978;32;20454;-62
2022/09/29 14:27:17;;;;;;;0.70;0.40;;;;;;;12.74;100.00;96390.53;18496193;32;20399;-62
2022/09/29 14:37:23;;;;;;;1.92;0.52;;;;;;;12.67;100.00;96399.12;18496603;32;20090;-62
2022/09/29 14:58:18;;;;;;;0.82;0.40;;;;;;;12.47;100.00;96402.41;18495477;32;20366;-62
2022/09/29 15:08:27;;;;;;;1.07;0.40;;;;;;;12.44;100.00;96420.09;18494507;32;20049;-62
2022/09/29 15:18:37;;;;;;;1.55;0.50;;;;;;;12.26;100.00;96424.66;18495493;32;20346;-62
2022/09/29 15:28:42;;;;;;;0.95;0.50;;;;;;;12.17;100.00;96426.53;18356327;32;20478;-62
2022/09/29 15:38:46;;;;;;;0.68;0.60;;;;;;;12.09;100.00;96430.78;18338856;32;20070;-62
2022/09/29 15:49:14;;;;;;;0.55;0.40;;;;;;;12.02;100.00;96435.84;18355225;32;20120;-62
2022/09/29 15:59:20;;;;;;;0.68;0.40;;;;;;;11.87;100.00;96440.50;18394691;32;20065;-62
2022/09/29 16:09:24;;;;;;;0.60;0.52;;;;;;;11.75;100.00;96447.59;18438691;32;20365;-62
2022/09/29 16:19:30;;;;;;;0.40;0.30;;;;;;;11.68;100.00;96453.44;18438826;32;20426;-62
2022/09/29 16:29:35;;;;;;;1.52;0.65;;;;;;;11.46;100.00;96465.81;18439235;32;20049;-62
2022/09/29 16:39:42;;;;;;;;;;;;;;;11.43;100.00;96471.84;18365333;32;20069;-62
2022/09/29 16:49:51;;;;;;;0.70;0.45;;;;;;;11.38;100.00;96482.00;18339096;32;20333;-62
2022/09/29 16:59:57;;;;;;;0.85;0.50;;;;;;;11.15;100.00;96501.66;18174475;32;20074;-62
2022/09/29 17:10:00;;;;;;;0.80;0.60;;;;;;;10.95;100.00;96499.38;18275992;32;20409;-62
2022/09/29 17:20:05;;;;;;;0.98;0.50;;;;;;;10.83;100.00;96519.59;18298588;32;20065;-62
2022/09/29 17:30:09;;;;;;;0.82;0.60;;;;;;;10.72;100.00;96526.31;18319523;32;20091;-62
2022/09/29 17:40:29;;;;;;;1.17;0.63;;;;;;;10.54;100.00;96535.28;18434794;32;20058;-62
2022/09/29 17:50:44;;;;;;;3.28;2.17;;;;;;;10.40;100.00;96538.78;18360955;32;20077;-62
2022/09/29 18:00:48;;;;;;;;;;;;;;;10.34;100.00;96548.84;18360275;32;20459;-62
2022/09/29 18:10:55;;;;;;;2.33;1.60;;;;;;;10.31;100.00;96559.44;18359457;32;20025;-62
2022/09/29 18:21:00;;;;;;;1.77;1.43;;;;;;;10.26;100.00;96557.59;18359363;32;20057;-62
2022/09/29 18:31:14;;;;;;;2.53;1.70;;;;;;;10.16;100.00;96565.88;18432181;32;20053;-62
2022/09/29 18:41:20;;;;;;;2.57;1.60;;;;;;;10.16;100.00;96582.88;18431699;32;20057;-62
2022/09/29 18:51:23;;;;;;;2.67;1.62;;;;;;;10.14;100.00;96593.19;18431400;32;20112;-62
2022/09/29 19:01:28;;;;;;;2.72;1.80;;;;;;;10.08;100.00;96599.75;18357269;32;20112;-62
2022/09/29 19:11:32;;;;;;;3.25;1.80;;;;;;;9.97;100.00;96609.09;18363951;32;20072;-62
2022/09/29 19:21:35;;;;;;;2.40;1.73;;;;;;;9.91;100.00;96624.56;18357519;32;20087;-62
2022/09/29 19:31:38;;;;;;;4.30;1.80;;;;;;;9.82;100.00;96629.81;18414670;32;20392;-62
2022/09/29 19:41:41;;;;;;;3.27;2.30;;;;;;;9.78;100.00;96644.97;18442194;32;20061;-62
2022/09/29 19:51:56;;;;;;;2.27;1.97;;;;;;;9.74;100.00;96653.94;18441583;32;20125;-62
2022/09/29 20:02:00;;;;;;;3.17;2.30;;;;;;;9.75;100.00;96650.97;18447252;32;20105;-62
2022/09/29 20:12:03;;;;;;;2.80;2.40;;;;;;;9.73;100.00;96647.75;18504815;32;20373;-62
2022/09/29 20:22:08;;;;;;;2.23;1.80;;;;;;;9.68;100.00;96661.31;18489619;32;20083;-62
2022/09/29 20:32:11;;;;;;;2.53;2.03;;;;;;;9.67;100.00;96670.50;18504173;32;20077;-62
2022/09/29 20:42:14;;;;;;;2.60;2.20;;;;;;;9.72;100.00;96678.53;18364615;32;20070;-62
2022/09/29 20:52:17;;;;;;;2.37;2.17;;;;;;;9.70;100.00;96671.81;18364834;32;20077;-61
2022/09/29 21:02:20;;;;;;;2.80;2.00;;;;;;;9.63;100.00;96681.09;18350652;32;20073;-62
2022/09/29 21:12:23;;;;;;;2.80;1.93;;;;;;;9.53;100.00;96696.59;18374171;32;20374;-62
2022/09/29 21:22:26;;;;;;;2.00;1.80;;;;;;;9.46;100.00;96721.19;18435464;32;20053;-62
2022/09/29 21:32:29;;;;;;;4.33;2.83;;;;;;;9.42;100.00;96722.87;18361152;32;20258;-62
2022/09/29 21:42:32;;;;;;;3.43;2.33;;;;;;;9.38;100.00;96732.63;18361325;32;20073;-62
2022/09/29 21:58:38;;;;;;;3.90;2.20;;;;;;;9.76;100.00;96755.16;18411512;32;20095;-60
2022/09/29 22:08:45;;;;;;;2.37;1.80;;;;;;;9.76;100.00;96755.16;18346498;32;20062;-61
2022/09/29 22:18:48;;;;;;;1.87;1.37;;;;;;;9.14;100.00;96760.34;18346299;32;20066;-63
2022/09/29 22:29:12;;;;;;;3.30;1.10;;;;;;;9.07;100.00;96763.38;18346686;32;20062;-63
2022/09/29 22:39:14;;;;;;;3.07;1.30;;;;;;;9.03;100.00;96756.13;18346337;32;20132;-63
2022/09/29 22:49:17;;;;;;;1.70;1.17;;;;;;;8.92;100.00;96771.56;18344209;32;20495;-63
2022/09/29 22:59:20;;;;;;;2.07;1.30;;;;;;;8.72;100.00;96775.22;18344166;32;20107;-63
2022/09/29 23:09:22;;;;;;;3.20;1.00;;;;;;;8.70;100.00;96777.37;18304874;32;20399;-63
2022/09/29 23:19:25;;;;;;;1.53;1.30;;;;;;;8.64;100.00;96790.09;18253666;32;20070;-63
2022/09/29 23:29:27;;;;;;;1.70;1.13;;;;;;;8.59;100.00;96792.81;18166422;32;20462;-63
2022/09/29 23:39:30;;;;;;;1.20;0.93;;;;;;;8.69;100.00;96792.75;18041668;32;20082;-63
2022/09/29 23:49:33;;;;;;;2.33;1.00;;;;;;;8.78;100.00;96793.78;18041011;32;20106;-63
2022/09/29 23:59:35;;;;;;;2.37;1.23;;;;;;;8.89;100.00;96801.78;18050188;32;20079;-63
